createdAt,value
2018-10-06T00:01:30.907Z,12.50
2018-10-06T00:03:59.300Z,12.50
2018-10-06T00:06:27.720Z,12.40
2018-10-06T00:08:56.135Z,12.40
2018-10-06T00:11:24.596Z,12.40
2018-10-06T00:13:52.992Z,12.30
2018-10-06T00:16:21.433Z,12.30
2018-10-06T00:18:49.802Z,12.30
2018-10-06T00:21:18.173Z,12.20
2018-10-06T00:23:46.675Z,12.20
2018-10-06T00:26:15.103Z,12.20
2018-10-06T00:28:43.444Z,12.20
2018-10-06T00:31:11.884Z,12.20
2018-10-06T00:33:40.332Z,12.20
2018-10-06T00:36:15.317Z,12.20
2018-10-06T00:38:43.750Z,12.20
2018-10-06T00:41:12.160Z,12.20
2018-10-06T00:43:40.599Z,12.10
2018-10-06T00:46:09.047Z,12.10
2018-10-06T00:48:37.493Z,12.10
2018-10-06T00:51:05.905Z,12.10
2018-10-06T00:53:34.441Z,12.00
2018-10-06T00:56:02.879Z,12.00
2018-10-06T00:58:31.380Z,12.00
2018-10-06T01:01:00.112Z,12.00
2018-10-06T01:03:28.531Z,12.00
2018-10-06T01:05:56.998Z,12.00
2018-10-06T01:08:25.405Z,12.00
2018-10-06T01:10:53.911Z,11.90
2018-10-06T01:13:22.413Z,11.90
2018-10-06T01:15:50.852Z,11.90
2018-10-06T01:18:19.428Z,11.90
2018-10-06T01:20:47.812Z,11.90
2018-10-06T01:23:16.219Z,11.90
2018-10-06T01:25:44.648Z,11.80
2018-10-06T01:28:13.148Z,11.80
2018-10-06T01:30:41.699Z,11.80
2018-10-06T01:33:10.099Z,11.70
2018-10-06T01:35:38.520Z,11.70
2018-10-06T01:38:07.029Z,11.70
2018-10-06T01:40:35.466Z,11.70
2018-10-06T01:43:03.961Z,11.60
2018-10-06T01:45:32.698Z,11.60
2018-10-06T01:48:01.204Z,11.60
2018-10-06T01:50:30.568Z,11.60
2018-10-06T01:52:58.947Z,11.50
2018-10-06T01:55:27.640Z,11.50
2018-10-06T01:57:56.096Z,11.50
2018-10-06T02:00:24.542Z,11.50
2018-10-06T02:02:53.443Z,11.40
2018-10-06T02:05:22.365Z,11.50
2018-10-06T02:07:50.774Z,11.40
2018-10-06T02:10:19.220Z,11.40
2018-10-06T02:12:47.807Z,11.30
2018-10-06T02:15:16.185Z,11.30
2018-10-06T02:17:44.618Z,11.30
2018-10-06T02:20:13.015Z,11.30
2018-10-06T02:22:41.443Z,11.20
2018-10-06T02:25:09.858Z,11.20
2018-10-06T02:27:38.248Z,11.20
2018-10-06T02:30:06.794Z,11.10
2018-10-06T02:32:35.119Z,11.10
2018-10-06T02:35:03.559Z,11.10
2018-10-06T02:37:32.362Z,11.10
2018-10-06T02:40:00.820Z,11.00
2018-10-06T02:42:29.739Z,11.00
2018-10-06T02:44:58.221Z,11.00
2018-10-06T02:47:26.644Z,11.00
2018-10-06T02:49:55.077Z,11.00
2018-10-06T02:52:23.564Z,10.90
2018-10-06T02:54:52.050Z,10.90
2018-10-06T02:57:20.435Z,10.90
2018-10-06T02:59:48.872Z,10.90
2018-10-06T03:02:17.336Z,10.80
2018-10-06T03:04:45.744Z,10.80
2018-10-06T03:07:14.226Z,10.80
2018-10-06T03:09:42.695Z,10.80
2018-10-06T03:12:11.122Z,10.70
2018-10-06T03:14:39.619Z,10.70
2018-10-06T03:17:08.225Z,10.70
2018-10-06T03:19:36.705Z,10.70
2018-10-06T03:22:05.206Z,10.80
2018-10-06T03:24:33.645Z,10.80
2018-10-06T03:27:02.078Z,10.80
2018-10-06T03:29:30.591Z,10.80
2018-10-06T03:31:59.109Z,10.80
2018-10-06T03:34:27.618Z,10.80
2018-10-06T03:36:56.103Z,10.80
2018-10-06T03:39:24.555Z,10.80
2018-10-06T03:41:53.073Z,10.70
2018-10-06T03:44:21.567Z,10.70
2018-10-06T03:46:50.019Z,10.70
2018-10-06T03:49:18.441Z,10.70
2018-10-06T03:51:47.014Z,10.70
2018-10-06T03:54:15.432Z,10.70
2018-10-06T03:56:44.468Z,10.60
2018-10-06T03:59:13.705Z,10.60
2018-10-06T04:01:42.164Z,10.60
2018-10-06T04:04:10.554Z,10.60
2018-10-06T04:06:38.979Z,10.50
2018-10-06T04:09:08.720Z,10.50
2018-10-06T04:11:37.361Z,10.40
2018-10-06T04:14:06.161Z,10.40
2018-10-06T04:16:34.562Z,10.40
2018-10-06T04:19:03.168Z,10.40
2018-10-06T04:21:45.505Z,10.40
2018-10-06T04:24:14.518Z,10.30
2018-10-06T04:26:42.904Z,10.30
2018-10-06T04:29:11.420Z,10.30
2018-10-06T04:31:40.202Z,10.30
2018-10-06T04:34:08.802Z,10.20
2018-10-06T04:36:37.389Z,10.20
2018-10-06T04:39:08.719Z,10.20
2018-10-06T04:41:37.131Z,10.20
2018-10-06T04:44:05.576Z,10.20
2018-10-06T04:46:33.956Z,10.20
2018-10-06T04:49:02.454Z,10.10
2018-10-06T04:51:30.849Z,10.10
2018-10-06T04:53:59.264Z,10.10
2018-10-06T04:56:27.688Z,10.00
2018-10-06T04:58:56.121Z,10.00
2018-10-06T05:01:24.581Z,10.00
2018-10-06T05:03:53.062Z,10.00
2018-10-06T05:06:21.452Z,10.00
2018-10-06T05:08:49.810Z,10.10
2018-10-06T05:11:18.298Z,10.00
2018-10-06T05:13:46.748Z,10.00
2018-10-06T05:16:15.156Z,10.00
2018-10-06T05:18:43.532Z,10.00
2018-10-06T05:21:11.981Z,10.00
2018-10-06T05:23:40.465Z,10.00
2018-10-06T05:26:08.838Z,10.00
2018-10-06T05:28:37.245Z,10.00
2018-10-06T05:31:06.581Z,10.00
2018-10-06T05:33:35.004Z,9.90
2018-10-06T05:36:03.441Z,9.90
2018-10-06T05:38:31.866Z,9.90
2018-10-06T05:41:00.264Z,9.90
2018-10-06T05:43:28.640Z,9.90
2018-10-06T05:45:57.028Z,9.90
2018-10-06T05:48:25.465Z,9.90
2018-10-06T05:50:53.960Z,9.90
2018-10-06T05:53:22.330Z,9.90
2018-10-06T05:55:50.763Z,9.90
2018-10-06T05:58:19.175Z,9.90
2018-10-06T06:00:47.548Z,10.00
2018-10-06T06:03:15.997Z,10.00
2018-10-06T06:05:44.392Z,10.00
2018-10-06T06:08:12.822Z,10.10
2018-10-06T06:10:41.176Z,10.10
2018-10-06T06:13:09.555Z,10.20
2018-10-06T06:15:38.100Z,10.30
2018-10-06T06:18:06.503Z,10.30
2018-10-06T06:20:34.944Z,10.40
2018-10-06T06:23:03.410Z,10.40
2018-10-06T06:25:31.863Z,10.50
2018-10-06T06:28:01.292Z,10.50
2018-10-06T06:30:29.725Z,10.50
2018-10-06T06:32:58.180Z,10.60
2018-10-06T06:35:26.733Z,10.70
2018-10-06T06:37:55.270Z,10.80
2018-10-06T06:40:23.696Z,10.80
2018-10-06T06:42:52.161Z,10.90
2018-10-06T06:45:21.826Z,10.90
2018-10-06T06:47:50.272Z,10.90
2018-10-06T06:50:18.743Z,11.00
2018-10-06T06:52:47.554Z,11.10
2018-10-06T06:55:16.007Z,11.20
2018-10-06T06:57:44.418Z,11.20
2018-10-06T07:00:12.989Z,11.30
2018-10-06T07:02:41.436Z,11.30
2018-10-06T07:05:09.930Z,11.40
2018-10-06T07:07:38.617Z,11.40
2018-10-06T07:10:07.069Z,11.50
2018-10-06T07:12:35.568Z,11.60
2018-10-06T07:15:04.068Z,11.60
2018-10-06T07:17:32.472Z,11.70
2018-10-06T07:20:01.960Z,11.80
2018-10-06T07:22:31.125Z,11.90
2018-10-06T07:24:59.955Z,12.10
2018-10-06T07:27:28.525Z,12.30
2018-10-06T07:29:56.994Z,12.40
2018-10-06T07:32:25.398Z,12.50
2018-10-06T07:34:53.812Z,12.70
2018-10-06T07:37:23.479Z,12.80
2018-10-06T07:39:51.992Z,12.90
2018-10-06T07:42:20.413Z,13.00
2018-10-06T07:44:49.040Z,13.00
2018-10-06T07:47:17.940Z,13.10
2018-10-06T07:49:46.360Z,13.20
2018-10-06T07:52:14.810Z,13.30
2018-10-06T07:54:43.288Z,13.50
2018-10-06T07:57:11.737Z,13.60
2018-10-06T07:59:40.712Z,13.60
2018-10-06T08:02:09.188Z,13.80
2018-10-06T08:04:37.655Z,13.90
2018-10-06T08:07:06.216Z,14.00
2018-10-06T08:09:35.613Z,14.10
2018-10-06T08:12:04.046Z,14.20
2018-10-06T08:14:32.512Z,14.30
2018-10-06T08:17:00.913Z,14.40
2018-10-06T08:19:29.384Z,14.50
2018-10-06T08:21:57.884Z,14.70
2018-10-06T08:24:26.289Z,14.80
2018-10-06T08:26:54.963Z,15.00
2018-10-06T08:29:23.408Z,15.10
2018-10-06T08:31:51.874Z,15.30
2018-10-06T08:34:20.301Z,15.40
2018-10-06T08:36:48.756Z,15.60
2018-10-06T08:39:17.206Z,15.60
2018-10-06T08:41:45.666Z,15.70
2018-10-06T08:44:14.629Z,15.80
2018-10-06T08:46:43.028Z,15.90
2018-10-06T08:49:11.431Z,15.90
2018-10-06T08:51:39.910Z,16.00
2018-10-06T08:54:08.299Z,16.10
2018-10-06T08:56:43.118Z,16.10
2018-10-06T08:59:11.479Z,16.20
2018-10-06T09:01:39.960Z,16.30
2018-10-06T09:04:08.449Z,16.50
2018-10-06T09:06:36.830Z,16.60
2018-10-06T09:09:07.068Z,16.80
2018-10-06T09:11:35.495Z,16.90
2018-10-06T09:14:03.940Z,16.90
2018-10-06T09:16:32.413Z,17.00
2018-10-06T09:19:00.825Z,17.00
2018-10-06T09:21:29.237Z,17.10
2018-10-06T09:23:57.625Z,17.20
2018-10-06T09:26:26.095Z,17.40
2018-10-06T09:28:54.492Z,17.60
2018-10-06T09:31:22.933Z,17.80
2018-10-06T09:33:51.312Z,18.10
2018-10-06T09:36:19.774Z,18.20
2018-10-06T09:38:48.171Z,18.30
2018-10-06T09:41:16.654Z,18.50
2018-10-06T09:43:45.149Z,18.60
2018-10-06T09:46:13.583Z,18.80
2018-10-06T09:48:42.024Z,18.80
2018-10-06T09:51:10.391Z,18.90
2018-10-06T09:53:38.903Z,19.00
2018-10-06T09:56:07.253Z,19.10
2018-10-06T09:58:35.647Z,19.20
2018-10-06T10:01:09.500Z,19.20
2018-10-06T10:03:43.246Z,19.30
2018-10-06T10:06:11.651Z,19.40
2018-10-06T10:08:40.066Z,19.60
2018-10-06T10:11:08.554Z,19.70
2018-10-06T10:13:36.919Z,19.80
2018-10-06T10:16:05.359Z,20.10
2018-10-06T10:18:33.800Z,20.30
2018-10-06T10:21:02.220Z,20.40
2018-10-06T10:23:30.779Z,20.60
2018-10-06T10:25:59.157Z,20.80
2018-10-06T10:28:28.447Z,21.00
2018-10-06T10:30:56.786Z,21.30
2018-10-06T10:33:25.222Z,21.50
2018-10-06T10:35:53.643Z,21.60
2018-10-06T10:38:22.114Z,21.70
2018-10-06T10:40:50.533Z,21.70
2018-10-06T10:43:18.934Z,21.80
2018-10-06T10:45:47.308Z,22.00
2018-10-06T10:48:15.765Z,22.30
2018-10-06T10:50:44.171Z,22.50
2018-10-06T10:53:12.596Z,22.60
2018-10-06T10:55:41.101Z,22.80
2018-10-06T10:58:09.495Z,23.00
2018-10-06T11:00:38.026Z,23.20
2018-10-06T11:03:06.356Z,23.40
2018-10-06T11:05:34.767Z,23.50
2018-10-06T11:08:03.237Z,23.70
2018-10-06T11:10:31.719Z,23.90
2018-10-06T11:13:00.217Z,24.50
2018-10-06T11:15:28.693Z,26.30
2018-10-06T11:17:58.851Z,28.40
2018-10-06T11:20:27.352Z,29.60
2018-10-06T11:22:55.745Z,31.10
2018-10-06T11:25:24.211Z,32.80
2018-10-06T11:27:52.663Z,33.70
2018-10-06T11:30:21.149Z,33.50
2018-10-06T11:32:49.659Z,32.40
2018-10-06T11:35:18.269Z,32.10
2018-10-06T11:37:46.893Z,31.70
2018-10-06T11:40:15.165Z,31.00
2018-10-06T11:42:50.999Z,30.30
2018-10-06T11:45:19.439Z,30.00
2018-10-06T11:47:47.888Z,29.90
2018-10-06T11:50:16.269Z,30.90
2018-10-06T11:52:44.687Z,32.40
2018-10-06T11:55:13.090Z,33.60
2018-10-06T11:57:48.104Z,34.50
2018-10-06T12:00:16.794Z,34.60
2018-10-06T12:02:44.994Z,33.50
2018-10-06T12:05:13.468Z,31.60
2018-10-06T12:07:41.933Z,29.40
2018-10-06T12:10:10.378Z,28.00
2018-10-06T12:12:38.809Z,27.50
2018-10-06T12:15:07.413Z,27.50
2018-10-06T12:17:35.876Z,27.80
2018-10-06T12:20:04.449Z,29.00
2018-10-06T12:22:32.885Z,29.70
2018-10-06T12:25:01.325Z,29.90
2018-10-06T12:27:29.828Z,29.90
2018-10-06T12:29:58.248Z,29.80
2018-10-06T12:32:26.641Z,30.60
2018-10-06T12:34:55.096Z,31.10
2018-10-06T12:37:23.423Z,30.90
2018-10-06T12:39:51.796Z,30.20
2018-10-06T12:42:20.292Z,29.50
2018-10-06T12:44:48.622Z,28.90
2018-10-06T12:47:17.003Z,28.50
2018-10-06T12:49:45.395Z,28.30
2018-10-06T12:52:13.831Z,27.80
2018-10-06T12:54:42.669Z,26.90
2018-10-06T12:57:11.157Z,26.10
2018-10-06T12:59:39.533Z,25.50
2018-10-06T13:02:07.997Z,25.00
2018-10-06T13:04:36.437Z,24.70
2018-10-06T13:07:04.881Z,24.60
2018-10-06T13:09:33.464Z,24.60
2018-10-06T13:12:02.031Z,24.60
2018-10-06T13:14:30.516Z,24.50
2018-10-06T13:16:58.945Z,24.40
2018-10-06T13:19:27.340Z,24.30
2018-10-06T13:21:55.848Z,24.30
2018-10-06T13:24:24.331Z,24.40
2018-10-06T13:26:52.859Z,24.60
2018-10-06T13:29:21.289Z,24.90
2018-10-06T13:31:49.766Z,25.20
2018-10-06T13:34:18.510Z,25.30
2018-10-06T13:36:47.152Z,25.20
2018-10-06T13:39:15.582Z,25.10
2018-10-06T13:41:43.989Z,24.90
2018-10-06T13:44:12.437Z,25.00
2018-10-06T13:46:41.504Z,24.80
2018-10-06T13:49:10.790Z,24.50
2018-10-06T13:51:39.245Z,24.30
2018-10-06T13:54:07.814Z,24.40
2018-10-06T13:56:36.187Z,24.50
2018-10-06T13:59:04.658Z,24.40
2018-10-06T14:01:33.115Z,24.30
2018-10-06T14:04:01.951Z,24.30
2018-10-06T14:06:30.522Z,24.30
2018-10-06T14:08:58.997Z,24.30
2018-10-06T14:11:27.345Z,24.30
2018-10-06T14:13:56.765Z,24.10
2018-10-06T14:16:25.175Z,24.00
2018-10-06T14:18:53.722Z,23.90
2018-10-06T14:21:22.143Z,23.90
2018-10-06T14:23:50.619Z,24.00
2018-10-06T14:26:19.071Z,24.10
2018-10-06T14:28:47.624Z,24.20
2018-10-06T14:31:16.053Z,24.20
2018-10-06T14:33:44.470Z,24.10
2018-10-06T14:36:12.832Z,24.30
2018-10-06T14:38:41.266Z,24.80
2018-10-06T14:41:09.724Z,25.00
2018-10-06T14:43:38.406Z,24.90
2018-10-06T14:46:07.335Z,24.80
2018-10-06T14:48:35.849Z,24.50
2018-10-06T14:51:04.288Z,24.20
2018-10-06T14:53:32.656Z,24.00
2018-10-06T14:56:01.204Z,23.70
2018-10-06T14:58:29.677Z,23.60
2018-10-06T15:00:58.100Z,23.40
2018-10-06T15:03:26.530Z,23.20
2018-10-06T15:05:54.988Z,23.10
2018-10-06T15:08:23.401Z,22.90
2018-10-06T15:10:51.833Z,22.80
2018-10-06T15:13:20.344Z,22.70
2018-10-06T15:15:48.818Z,22.60
2018-10-06T15:18:17.505Z,22.50
2018-10-06T15:20:45.976Z,22.50
2018-10-06T15:23:14.561Z,22.40
2018-10-06T15:25:43.020Z,22.30
2018-10-06T15:28:11.487Z,22.20
2018-10-06T15:30:39.958Z,22.10
2018-10-06T15:33:08.403Z,22.00
2018-10-06T15:35:37.029Z,21.90
2018-10-06T15:38:05.531Z,21.80
2018-10-06T15:40:34.100Z,21.70
2018-10-06T15:43:02.560Z,21.60
2018-10-06T15:45:31.012Z,21.50
2018-10-06T15:47:59.471Z,21.50
2018-10-06T15:50:27.944Z,21.40
2018-10-06T15:52:56.372Z,21.40
2018-10-06T15:55:24.853Z,21.30
2018-10-06T15:57:53.593Z,21.30
2018-10-06T16:00:21.988Z,21.10
2018-10-06T16:02:51.118Z,21.00
2018-10-06T16:05:19.462Z,21.00
2018-10-06T16:07:47.889Z,20.90
2018-10-06T16:10:19.921Z,20.80
2018-10-06T16:12:48.582Z,20.70
2018-10-06T16:15:17.101Z,20.70
2018-10-06T16:17:45.653Z,20.60
2018-10-06T16:20:14.539Z,20.50
2018-10-06T16:22:47.802Z,20.50
2018-10-06T16:25:16.525Z,20.40
2018-10-06T16:27:45.801Z,20.30
2018-10-06T16:30:14.278Z,20.30
2018-10-06T16:32:43.829Z,20.20
2018-10-06T16:35:12.226Z,20.10
2018-10-06T16:37:40.726Z,20.00
2018-10-06T16:40:13.818Z,19.90
2018-10-06T16:42:42.274Z,19.80
2018-10-06T16:45:10.837Z,19.80
2018-10-06T16:47:41.209Z,19.70
2018-10-06T16:50:15.507Z,19.60
2018-10-06T16:52:47.371Z,19.50
2018-10-06T16:55:21.342Z,19.50
2018-10-06T16:57:49.723Z,19.40
2018-10-06T17:03:04.437Z,19.20
2018-10-06T17:05:35.611Z,19.20
2018-10-06T17:08:04.067Z,19.10
2018-10-06T17:10:32.550Z,19.00
2018-10-06T17:13:01.557Z,19.00
2018-10-06T17:15:30.600Z,18.90
2018-10-06T17:18:01.454Z,18.90
2018-10-06T17:20:29.984Z,18.80
2018-10-06T17:22:58.786Z,18.80
2018-10-06T17:25:27.274Z,18.80
2018-10-06T17:27:55.684Z,18.70
2018-10-06T17:30:24.118Z,18.70
2018-10-06T17:32:52.590Z,18.70
2018-10-06T17:35:21.089Z,18.60
2018-10-06T17:37:49.541Z,18.60
2018-10-06T17:40:17.981Z,18.60
2018-10-06T17:42:46.416Z,18.60
2018-10-06T17:45:16.994Z,18.50
2018-10-06T17:47:46.094Z,18.50
2018-10-06T17:50:14.891Z,18.50
2018-10-06T17:52:43.386Z,18.50
2018-10-06T17:55:11.859Z,18.40
2018-10-06T17:57:40.579Z,18.40
2018-10-06T18:00:09.124Z,18.30
2018-10-06T18:02:37.743Z,18.30
2018-10-06T18:05:06.280Z,18.30
2018-10-06T18:07:38.657Z,18.30
2018-10-06T18:10:07.078Z,18.30
2018-10-06T18:12:35.668Z,18.20
2018-10-06T18:15:04.247Z,18.20
2018-10-06T18:17:32.678Z,18.20
2018-10-06T18:20:01.176Z,18.20
2018-10-06T18:22:29.594Z,18.20
2018-10-06T18:24:58.025Z,18.10
2018-10-06T18:27:26.534Z,18.10
2018-10-06T18:32:57.897Z,18.10
2018-10-06T18:35:26.316Z,18.00
2018-10-06T18:37:54.779Z,18.00
2018-10-06T18:40:23.482Z,18.00
2018-10-06T18:42:51.957Z,18.00
2018-10-06T18:45:20.422Z,18.00
2018-10-06T18:47:48.879Z,18.00
2018-10-06T18:50:17.484Z,17.90
2018-10-06T18:52:46.046Z,17.90
2018-10-06T18:55:14.673Z,17.90
2018-10-06T18:57:43.197Z,17.80
2018-10-06T19:00:11.642Z,17.80
2018-10-06T19:02:40.198Z,17.70
2018-10-06T19:05:11.397Z,17.70
2018-10-06T19:07:40.067Z,17.70
2018-10-06T19:10:08.705Z,17.60
2018-10-06T19:12:37.098Z,17.50
2018-10-06T19:15:06.252Z,17.50
2018-10-06T19:17:35.394Z,17.50
2018-10-06T19:20:03.974Z,17.40
2018-10-06T19:22:32.497Z,17.40
2018-10-06T19:25:00.977Z,17.40
2018-10-06T19:27:29.465Z,17.40
2018-10-06T19:29:58.169Z,17.40
2018-10-06T19:32:26.626Z,17.30
2018-10-06T19:34:55.073Z,17.30
2018-10-06T19:37:23.500Z,17.30
2018-10-06T19:39:52.436Z,17.30
2018-10-06T19:42:20.817Z,17.20
2018-10-06T19:44:49.386Z,17.20
2018-10-06T19:47:17.808Z,17.10
2018-10-06T19:49:46.219Z,17.10
2018-10-06T19:52:14.732Z,17.20
2018-10-06T19:54:43.198Z,17.20
2018-10-06T19:57:11.716Z,17.20
2018-10-06T19:59:40.205Z,17.20
2018-10-06T20:02:08.898Z,17.30
2018-10-06T20:04:37.357Z,17.30
2018-10-06T20:07:06.448Z,17.30
2018-10-06T20:09:34.921Z,17.30
2018-10-06T20:12:03.392Z,17.30
2018-10-06T20:14:32.808Z,17.30
2018-10-06T20:17:01.785Z,17.30
2018-10-06T20:19:30.324Z,17.30
2018-10-06T20:21:59.736Z,17.20
2018-10-06T20:24:28.205Z,17.20
2018-10-06T20:26:56.757Z,17.20
2018-10-06T20:29:25.238Z,17.10
2018-10-06T20:31:53.672Z,17.10
2018-10-06T20:34:22.165Z,17.10
2018-10-06T20:36:50.634Z,17.00
2018-10-06T20:39:19.043Z,17.00
2018-10-06T20:41:47.528Z,17.00
2018-10-06T20:44:15.909Z,17.00
2018-10-06T20:49:19.034Z,17.00
2018-10-06T20:51:47.453Z,17.00
2018-10-06T20:54:15.950Z,17.00
2018-10-06T20:56:44.440Z,17.00
2018-10-06T20:59:12.921Z,17.00
2018-10-06T21:01:41.422Z,16.90
2018-10-06T21:04:09.849Z,16.90
2018-10-06T21:06:38.263Z,16.90
2018-10-06T21:09:09.349Z,16.90
2018-10-06T21:11:37.738Z,16.80
2018-10-06T21:14:06.217Z,16.80
2018-10-06T21:16:35.926Z,16.70
2018-10-06T21:19:04.365Z,16.70
2018-10-06T21:21:32.796Z,16.60
2018-10-06T21:24:01.218Z,16.60
2018-10-06T21:26:29.595Z,16.60
2018-10-06T21:28:58.429Z,16.60
2018-10-06T21:31:26.816Z,16.60
2018-10-06T21:34:01.790Z,16.50
2018-10-06T21:36:30.153Z,16.50
2018-10-06T21:38:58.581Z,16.50
2018-10-06T21:41:27.042Z,16.50
2018-10-06T21:43:55.464Z,16.50
2018-10-06T21:46:23.930Z,16.50
2018-10-06T21:48:52.380Z,16.50
2018-10-06T21:51:20.819Z,16.50
2018-10-06T21:53:49.237Z,16.40
2018-10-06T21:56:17.625Z,16.40
2018-10-06T21:58:45.997Z,16.40
2018-10-06T22:01:15.032Z,16.40
2018-10-06T22:03:43.390Z,16.40
2018-10-06T22:06:11.801Z,16.40
2018-10-06T22:08:40.203Z,16.40
2018-10-06T22:11:08.634Z,16.40
2018-10-06T22:13:37.103Z,16.30
2018-10-06T22:16:05.661Z,16.30
2018-10-06T22:18:34.140Z,16.30
2018-10-06T22:21:02.587Z,16.20
2018-10-06T22:23:31.109Z,16.20
2018-10-06T22:25:59.560Z,16.20
2018-10-06T22:28:27.997Z,16.10
2018-10-06T22:30:56.409Z,16.10
2018-10-06T22:33:24.852Z,16.00
2018-10-06T22:35:53.310Z,15.90
2018-10-06T22:38:21.736Z,15.90
2018-10-06T22:40:50.149Z,15.80
2018-10-06T22:43:18.567Z,15.80
2018-10-06T22:45:46.988Z,15.80
2018-10-06T22:48:15.473Z,15.80
2018-10-06T22:50:43.928Z,15.70
2018-10-06T22:53:12.371Z,15.70
2018-10-06T22:55:40.925Z,15.70
2018-10-06T22:58:09.342Z,15.60
2018-10-06T23:00:37.859Z,15.60
2018-10-06T23:03:06.516Z,15.50
2018-10-06T23:05:34.968Z,15.50
2018-10-06T23:08:03.395Z,15.50
2018-10-06T23:10:31.894Z,15.50
2018-10-06T23:13:00.372Z,15.40
2018-10-06T23:15:28.877Z,15.40
2018-10-06T23:17:59.295Z,15.40
2018-10-06T23:20:27.749Z,15.40
2018-10-06T23:22:56.155Z,15.40
2018-10-06T23:25:24.521Z,15.30
2018-10-06T23:27:52.941Z,15.30
2018-10-06T23:30:21.363Z,15.30
2018-10-06T23:32:49.847Z,15.30
2018-10-06T23:35:18.273Z,15.30
2018-10-06T23:37:47.721Z,15.30
2018-10-06T23:40:16.187Z,15.30
2018-10-06T23:42:44.611Z,15.30
2018-10-06T23:45:13.148Z,15.30
2018-10-06T23:47:41.571Z,15.20
2018-10-06T23:50:10.016Z,15.20
2018-10-06T23:52:38.429Z,15.10
2018-10-06T23:55:06.921Z,15.10
2018-10-06T23:57:35.360Z,15.10
